Time;durP1;ratioP1;P1;durP2;ratioP2;P2;SDS_P1;SDS_P2;PMS_P1;PMS_P2;Temp;Humidity;BMP_temperature;BMP_pressure;BME280_temperature;BME280_humidity;BME280_pressure;Samples;Min_cycle;Max_cycle;Signal;HPM_P1;HPM_P2
2021/11/05 07:50:33;;;;;;;26.75;16.60;;;;;;;8.06;79.70;99330.22;2605923;46;20057;-69
2021/11/05 07:53:03;;;;;;;27.08;17.60;;;;;;;8.11;79.20;99327.91;2618992;54;20030;-70
2021/11/05 07:55:34;;;;;;;24.45;16.80;;;;;;;8.15;79.21;99344.22;2619157;39;20422;-70
2021/11/05 07:58:03;;;;;;;22.05;16.23;;;;;;;8.21;78.67;99338.31;2619014;54;20061;-69
2021/11/05 08:00:35;;;;;;;24.17;16.88;;;;;;;8.26;78.51;99336.00;2619174;39;20410;-69
2021/11/05 08:03:10;;;;;;;23.75;18.13;;;;;;;8.27;78.74;99345.53;2619082;54;20483;-69
2021/11/05 08:05:43;;;;;;;23.88;16.88;;;;;;;8.36;78.65;99356.88;2619646;54;20034;-69
2021/11/05 08:08:13;;;;;;;24.30;17.20;;;;;;;8.35;78.36;99357.88;2619746;54;20030;-71
2021/11/05 08:10:43;;;;;;;26.20;18.17;;;;;;;8.36;78.08;99356.88;2623967;54;20045;-70
2021/11/05 08:13:13;;;;;;;22.50;17.27;;;;;;;8.44;78.11;99364.81;2625366;54;20041;-70
2021/11/05 08:15:43;;;;;;;22.10;17.00;;;;;;;8.51;78.30;99363.19;2624949;39;20449;-70
2021/11/05 08:18:13;;;;;;;25.90;18.08;;;;;;;8.56;77.87;99363.50;2625258;54;20038;-70
2021/11/05 08:20:47;;;;;;;24.73;16.70;;;;;;;8.61;77.73;99371.75;2623247;54;20038;-70
2021/11/05 08:23:17;;;;;;;24.65;17.15;;;;;;;8.64;77.67;99378.50;2625637;54;20034;-70
2021/11/05 08:25:47;;;;;;;23.65;17.05;;;;;;;8.70;77.38;99393.66;2624759;54;20034;-69
2021/11/05 08:28:17;;;;;;;23.08;17.55;;;;;;;8.71;77.73;99392.66;2624430;54;20045;-69
2021/11/05 08:30:49;;;;;;;21.65;16.83;;;;;;;8.71;77.62;99397.13;2623578;46;20038;-69
2021/11/05 08:33:20;;;;;;;26.40;19.17;;;;;;;8.74;77.53;99409.97;2626007;39;20415;-69
2021/11/05 08:35:53;;;;;;;26.83;19.92;;;;;;;8.74;76.89;99410.78;2624837;39;20461;-69
2021/11/05 08:38:25;;;;;;;28.00;19.92;;;;;;;8.78;76.91;99414.75;2626137;54;20053;-69
2021/11/05 08:40:57;;;;;;;25.65;18.55;;;;;;;8.88;76.92;99425.09;2625793;54;20062;-69
2021/11/05 08:43:31;;;;;;;27.08;19.10;;;;;;;8.84;76.41;99429.88;2626013;54;20031;-69
2021/11/05 08:46:02;;;;;;;27.08;19.65;;;;;;;8.88;76.13;99435.66;2626705;39;20441;-69
2021/11/05 08:48:32;;;;;;;24.08;18.70;;;;;;;8.89;76.58;99438.09;2625915;39;20476;-68
2021/11/05 08:51:10;;;;;;;23.65;18.05;;;;;;;9.10;76.10;99440.25;2625928;54;20718;-68
2021/11/05 08:53:40;;;;;;;24.65;18.23;;;;;;;9.23;76.02;99437.09;2626821;54;20034;-68
2021/11/05 08:56:11;;;;;;;25.10;18.13;;;;;;;9.28;75.91;99436.59;2626418;54;20057;-68
2021/11/05 08:58:41;;;;;;;25.15;18.92;;;;;;;9.40;75.30;99443.16;2625220;54;20038;-69
2021/11/05 09:01:11;;;;;;;25.17;18.05;;;;;;;9.39;75.34;99441.50;2625157;54;20035;-70
2021/11/05 09:03:41;;;;;;;24.75;17.70;;;;;;;9.37;74.83;99441.66;2625194;54;20037;-70
2021/11/05 09:06:13;;;;;;;26.60;17.67;;;;;;;9.38;75.83;99447.75;2625034;54;20573;-71
2021/11/05 09:08:43;;;;;;;24.80;18.23;;;;;;;9.44;75.89;99457.66;2625388;54;20035;-72
2021/11/05 09:11:13;;;;;;;26.23;18.48;;;;;;;9.49;75.73;99460.59;2624592;54;20046;-70
2021/11/05 09:13:43;;;;;;;26.23;17.10;;;;;;;9.50;75.00;99459.59;2624722;54;20023;-71
2021/11/05 09:16:13;;;;;;;23.90;17.85;;;;;;;9.55;75.32;99461.72;2622219;54;20054;-72
2021/11/05 09:18:43;;;;;;;21.10;16.80;;;;;;;9.54;75.02;99463.53;2623820;47;20157;-72
2021/11/05 09:21:15;;;;;;;20.45;16.45;;;;;;;9.49;74.59;99471.16;2624294;54;20039;-72
2021/11/05 09:23:45;;;;;;;22.65;16.38;;;;;;;9.47;74.71;99467.03;2624491;54;20619;-72
2021/11/05 09:26:15;;;;;;;23.27;16.80;;;;;;;9.41;74.07;99473.81;2624677;54;20027;-71
2021/11/05 09:28:44;;;;;;;22.73;16.63;;;;;;;9.40;74.01;99478.28;2625584;54;20628;-71
2021/11/05 09:31:14;;;;;;;24.15;17.27;;;;;;;9.46;74.05;99483.84;2625485;54;20045;-70
2021/11/05 09:33:44;;;;;;;19.88;15.07;;;;;;;9.51;73.49;99479.75;2624805;54;20612;-71
2021/11/05 09:36:16;;;;;;;24.35;16.95;;;;;;;9.63;72.96;99488.94;2625210;47;20034;-71
2021/11/05 09:38:46;;;;;;;20.48;15.95;;;;;;;9.67;73.19;99492.88;2625358;54;20050;-73
2021/11/05 09:41:15;;;;;;;22.63;17.55;;;;;;;9.74;72.78;99500.13;2625640;54;20596;-70
2021/11/05 09:43:45;;;;;;;22.30;16.83;;;;;;;9.79;72.58;99497.78;2624490;47;20038;-69
2021/11/05 09:46:15;;;;;;;20.13;14.48;;;;;;;9.76;72.41;99501.59;2624228;54;20054;-68
2021/11/05 09:48:46;;;;;;;17.75;13.65;;;;;;;9.68;72.30;99506.91;2624519;54;20027;-69
2021/11/05 09:51:18;;;;;;;21.98;16.42;;;;;;;9.69;72.06;99508.56;2624103;47;20093;-68
2021/11/05 09:53:48;;;;;;;18.40;14.23;;;;;;;9.65;71.10;99518.63;2624054;47;20554;-69
2021/11/05 09:56:19;;;;;;;16.80;14.00;;;;;;;9.53;71.69;99532.34;2623860;54;20015;-69
2021/11/05 09:58:49;;;;;;;15.90;12.70;;;;;;;9.60;72.05;99525.41;2625845;39;20499;-68
2021/11/05 10:01:19;;;;;;;14.45;11.70;;;;;;;9.67;71.31;99524.56;2622499;54;20549;-70
2021/11/05 10:03:48;;;;;;;16.65;13.48;;;;;;;9.66;71.04;99528.19;2623315;54;20066;-69
2021/11/05 10:06:25;;;;;;;16.27;12.93;;;;;;;9.76;70.58;99533.28;2623452;54;20034;-68
2021/11/05 10:08:56;;;;;;;19.48;15.00;;;;;;;9.72;70.59;99537.25;2622901;54;20026;-69
2021/11/05 10:11:28;;;;;;;19.13;15.38;;;;;;;9.76;70.08;99535.13;2622681;54;20042;-69
2021/11/05 10:13:59;;;;;;;14.57;11.88;;;;;;;9.75;70.45;99541.34;2622617;54;20037;-68
2021/11/05 10:16:30;;;;;;;18.00;13.30;;;;;;;9.88;71.04;99545.13;2623456;47;20023;-69
2021/11/05 10:19:05;;;;;;;15.88;12.02;;;;;;;9.93;70.46;99545.44;2623510;54;20038;-69
2021/11/05 10:21:43;;;;;;;14.52;11.80;;;;;;;10.02;70.19;99553.34;2623599;39;20481;-70
2021/11/05 10:24:15;;;;;;;15.75;12.77;;;;;;;10.07;69.94;99553.66;2623810;54;20026;-69
2021/11/05 10:26:45;;;;;;;15.75;13.15;;;;;;;10.06;69.98;99555.47;2623370;39;20422;-69
2021/11/05 10:29:28;;;;;;;13.77;11.82;;;;;;;10.07;69.81;99551.00;2622548;47;20131;-69
2021/11/05 10:32:05;;;;;;;16.95;12.88;;;;;;;10.11;70.34;99554.94;2621977;54;20583;-69
2021/11/05 10:34:49;;;;;;;13.50;11.07;;;;;;;10.17;69.71;99549.00;2622036;39;20453;-69
2021/11/05 10:37:32;;;;;;;17.55;13.27;;;;;;;10.27;69.98;99556.72;2621846;54;20042;-68
2021/11/05 10:40:03;;;;;;;13.30;9.93;;;;;;;10.39;69.58;99563.28;2623506;39;20441;-71
2021/11/05 10:42:43;;;;;;;15.13;11.52;;;;;;;10.49;69.24;99557.78;2623860;54;20557;-70
2021/11/05 10:45:14;;;;;;;14.90;10.90;;;;;;;10.53;68.85;99556.44;2624043;54;20604;-71
2021/11/05 10:48:07;;;;;;;16.60;13.10;;;;;;;10.59;68.19;99558.41;2621714;54;20049;-70
2021/11/05 10:50:40;;;;;;;11.95;10.20;;;;;;;10.55;68.26;99565.84;2624210;54;20030;-72
2021/11/05 10:53:15;;;;;;;12.95;10.43;;;;;;;10.63;67.84;99557.03;2624851;54;20054;-64
2021/11/05 10:55:48;;;;;;;15.20;11.23;;;;;;;10.68;67.71;99559.16;2621615;54;20081;-66
2021/11/05 10:58:20;;;;;;;16.08;12.40;;;;;;;10.78;67.25;99565.88;2623549;54;20030;-66
2021/11/05 11:00:53;;;;;;;11.00;9.57;;;;;;;10.72;67.05;99566.56;2622058;54;20038;-67
2021/11/05 11:03:25;;;;;;;12.15;10.27;;;;;;;10.75;66.74;99570.69;2623007;54;20030;-66
2021/11/05 11:05:56;;;;;;;12.27;10.02;;;;;;;10.82;67.09;99567.19;2623589;54;20038;-67
2021/11/05 11:08:30;;;;;;;16.35;13.52;;;;;;;11.02;66.02;99567.53;2622792;54;20038;-66
2021/11/05 11:11:02;;;;;;;16.52;12.98;;;;;;;11.18;65.11;99558.63;2624507;39;20455;-67
2021/11/05 11:13:34;;;;;;;15.65;10.75;;;;;;;11.26;65.81;99560.38;2625287;39;20508;-68
2021/11/05 11:16:07;;;;;;;12.38;11.07;;;;;;;11.46;65.32;99563.38;2624235;54;20043;-67
2021/11/05 11:18:48;;;;;;;12.25;9.95;;;;;;;11.58;64.03;99567.22;2624010;54;20034;-67
2021/11/05 11:21:18;;;;;;;11.02;9.30;;;;;;;11.55;64.64;99564.94;2623430;54;20030;-69
2021/11/05 11:23:51;;;;;;;11.98;9.00;;;;;;;11.61;64.85;99574.81;2623197;47;20026;-68
2021/11/05 11:26:21;;;;;;;12.15;9.73;;;;;;;11.65;64.50;99570.81;2621191;54;20041;-67
2021/11/05 11:28:51;;;;;;;12.18;10.65;;;;;;;11.71;64.44;99570.06;2620778;47;20026;-69
2021/11/05 11:31:21;;;;;;;12.82;9.52;;;;;;;11.70;64.54;99571.06;2619872;54;20022;-68
2021/11/05 11:33:52;;;;;;;12.32;10.10;;;;;;;11.58;64.53;99572.50;2619467;54;20029;-68
2021/11/05 11:36:23;;;;;;;14.45;9.93;;;;;;;11.48;64.63;99572.78;2618916;54;20073;-68
2021/11/05 11:38:55;;;;;;;12.73;9.18;;;;;;;11.22;64.35;99572.34;2619142;47;20541;-68
2021/11/05 11:41:25;;;;;;;10.18;8.90;;;;;;;11.04;64.29;99575.28;2619465;39;20107;-67
2021/11/05 11:44:00;;;;;;;8.75;7.65;;;;;;;10.91;64.05;99579.34;2619809;54;20041;-67
2021/11/05 11:46:30;;;;;;;10.07;7.63;;;;;;;10.82;64.23;99584.88;2620408;47;20049;-66
2021/11/05 11:49:13;;;;;;;;;;;;;;;10.78;64.17;99588.88;2623338;54;20046;-67
2021/11/05 11:51:49;;;;;;;9.75;7.65;;;;;;;10.76;64.13;99578.44;2623146;54;20012;-66
2021/11/05 11:54:32;;;;;;;10.98;8.52;;;;;;;10.62;63.76;99581.84;2623209;54;20053;-66
2021/11/05 11:57:15;;;;;;;10.35;8.07;;;;;;;10.57;64.52;99592.94;2622980;39;20383;-66
2021/11/05 11:59:48;;;;;;;11.00;8.65;;;;;;;10.52;64.72;99589.97;2621933;54;20034;-67
2021/11/05 12:02:34;;;;;;;10.32;6.55;;;;;;;10.36;63.99;99595.34;2623146;54;20030;-66
2021/11/05 12:05:05;;;;;;;10.98;7.80;;;;;;;10.45;64.94;99601.41;2623354;39;20466;-67
2021/11/05 12:07:41;;;;;;;8.77;6.72;;;;;;;10.55;64.69;99599.41;2623104;54;20039;-66
2021/11/05 12:10:30;;;;;;;8.40;7.22;;;;;;;10.66;64.79;99596.38;2622971;54;20034;-66
2021/11/05 12:13:00;;;;;;;9.05;7.88;;;;;;;10.75;64.39;99597.97;2623032;54;20034;-66
2021/11/05 12:15:29;;;;;;;9.10;6.70;;;;;;;10.77;64.29;99601.25;2622910;47;20030;-64
2021/11/05 12:18:11;;;;;;;8.95;7.35;;;;;;;10.87;63.83;99598.38;2623281;54;20081;-67
2021/11/05 12:20:43;;;;;;;8.30;7.50;;;;;;;10.97;63.84;99598.16;2622233;54;20049;-65
2021/11/05 12:23:17;;;;;;;6.68;5.97;;;;;;;10.95;62.88;99595.69;2621883;54;20029;-65
2021/11/05 12:25:56;;;;;;;7.78;6.40;;;;;;;11.01;62.65;99596.81;2623445;54;20042;-65
2021/11/05 12:28:29;;;;;;;8.48;6.88;;;;;;;11.15;63.04;99594.22;2623245;54;20034;-65
2021/11/05 12:31:28;;;;;;;8.88;7.07;;;;;;;11.32;62.14;99596.75;2622707;54;20047;-65
2021/11/05 12:33:59;;;;;;;9.82;7.13;;;;;;;11.36;62.10;99601.50;2622612;54;20034;-65
2021/11/05 12:36:48;;;;;;;8.85;7.95;;;;;;;11.48;61.60;99606.38;2622321;39;20067;-66
2021/11/05 12:39:28;;;;;;;9.30;7.20;;;;;;;11.45;61.65;99602.25;2621954;54;20039;-65
2021/11/05 12:42:04;;;;;;;7.57;6.78;;;;;;;11.49;61.81;99603.53;2621810;54;20073;-67
2021/11/05 12:44:53;;;;;;;9.25;7.32;;;;;;;11.61;60.86;99601.28;2622430;54;20660;-66
2021/11/05 12:47:48;;;;;;;7.63;6.90;;;;;;;11.72;60.52;99602.69;2621650;54;20026;-67
2021/11/05 12:50:23;;;;;;;10.23;7.03;;;;;;;11.67;60.08;99605.84;2622906;54;20085;-66
2021/11/05 12:52:54;;;;;;;7.82;6.47;;;;;;;11.72;60.40;99613.28;2622776;54;20534;-66
2021/11/05 12:55:25;;;;;;;8.60;6.72;;;;;;;11.82;59.96;99603.25;2622724;54;20081;-66
2021/11/05 12:58:00;;;;;;;8.23;7.28;;;;;;;11.98;59.83;99612.88;2622843;54;20046;-66
2021/11/05 13:00:32;;;;;;;11.95;10.13;;;;;;;12.03;59.40;99615.81;2622014;54;20030;-66
2021/11/05 13:03:05;;;;;;;7.30;6.50;;;;;;;12.01;59.36;99623.13;2622763;54;20026;-66
2021/11/05 13:05:40;;;;;;;9.52;7.47;;;;;;;12.04;58.69;99622.75;2623140;54;20026;-66
2021/11/05 13:08:12;;;;;;;8.38;7.55;;;;;;;12.08;57.95;99616.06;2622976;54;20806;-65
2021/11/05 13:10:43;;;;;;;8.70;7.53;;;;;;;12.03;57.75;99615.81;2619865;54;20042;-67
2021/11/05 13:13:16;;;;;;;7.95;6.20;;;;;;;11.98;58.01;99618.19;2622293;54;20034;-67
2021/11/05 13:15:49;;;;;;;5.45;4.88;;;;;;;11.81;56.63;99620.16;2622340;54;20030;-67
2021/11/05 13:18:19;;;;;;;5.25;4.15;;;;;;;11.68;57.07;99620.78;2622226;54;20034;-67
2021/11/05 13:20:50;;;;;;;5.93;5.15;;;;;;;11.56;56.77;99617.72;2621599;54;20581;-66
2021/11/05 13:23:21;;;;;;;5.05;4.55;;;;;;;11.44;57.19;99623.63;2621514;54;20577;-67
2021/11/05 13:25:52;;;;;;;4.82;4.30;;;;;;;11.40;57.41;99625.81;2622472;39;20456;-66
2021/11/05 13:28:26;;;;;;;5.95;4.95;;;;;;;11.15;57.27;99623.34;2622513;39;20442;-67
2021/11/05 13:30:57;;;;;;;5.07;4.57;;;;;;;11.09;57.33;99620.56;2621924;54;20031;-65
2021/11/05 13:33:30;;;;;;;6.25;5.30;;;;;;;11.00;58.08;99627.72;2622197;54;20030;-66
2021/11/05 13:36:01;;;;;;;6.38;5.85;;;;;;;11.06;58.77;99626.19;2622462;54;20105;-66
2021/11/05 13:38:34;;;;;;;5.85;4.60;;;;;;;11.06;58.41;99629.69;2622369;54;20027;-65
2021/11/05 13:41:07;;;;;;;7.60;5.13;;;;;;;11.04;58.51;99628.22;2622097;54;20037;-66
2021/11/05 13:43:42;;;;;;;7.30;5.25;;;;;;;10.92;58.52;99627.78;2621684;54;20115;-66
2021/11/05 13:46:13;;;;;;;5.53;4.57;;;;;;;11.05;58.50;99637.78;2622116;39;20120;-66
2021/11/05 13:48:44;;;;;;;5.13;4.63;;;;;;;11.07;59.12;99643.75;2621718;54;20045;-65
2021/11/05 13:51:19;;;;;;;6.05;5.20;;;;;;;11.06;58.62;99650.00;2622102;54;20073;-66
2021/11/05 13:53:50;;;;;;;6.35;5.65;;;;;;;11.10;58.70;99646.88;2621415;54;20081;-66
2021/11/05 13:56:25;;;;;;;6.57;4.88;;;;;;;11.01;58.46;99650.53;2621627;54;20552;-66
2021/11/05 13:59:00;;;;;;;4.63;3.92;;;;;;;10.98;58.50;99656.19;2622086;54;20061;-66
2021/11/05 14:01:32;;;;;;;5.32;4.30;;;;;;;11.04;58.45;99646.72;2622094;54;20030;-66
2021/11/05 14:04:04;;;;;;;5.88;4.72;;;;;;;11.00;58.25;99659.47;2622891;31;20491;-68
2021/11/05 14:06:40;;;;;;;6.43;5.28;;;;;;;11.04;58.90;99657.31;2623760;54;20034;-67
2021/11/05 14:09:10;;;;;;;6.80;5.32;;;;;;;10.96;58.88;99660.81;2624504;54;20061;-67
2021/11/05 14:11:42;;;;;;;9.98;6.88;;;;;;;10.95;59.03;99663.66;2623592;54;20058;-67
2021/11/05 14:14:22;;;;;;;4.95;4.45;;;;;;;10.99;58.90;99660.47;2624017;54;20042;-67
2021/11/05 14:16:55;;;;;;;5.78;4.55;;;;;;;11.02;58.49;99669.88;2623537;54;20053;-67
2021/11/05 14:19:26;;;;;;;6.63;5.60;;;;;;;11.02;58.48;99673.38;2623045;54;20039;-68
2021/11/05 14:22:00;;;;;;;7.65;5.30;;;;;;;11.00;59.23;99677.19;2623402;54;20656;-68
2021/11/05 14:24:36;;;;;;;7.55;5.35;;;;;;;10.93;59.10;99671.75;2623719;54;20031;-67
2021/11/05 14:27:09;;;;;;;7.25;5.38;;;;;;;10.92;59.38;99680.69;2623611;54;20038;-68
2021/11/05 14:29:42;;;;;;;8.88;6.47;;;;;;;10.92;58.99;99680.69;2623056;54;20042;-66
2021/11/05 14:32:14;;;;;;;6.43;5.88;;;;;;;10.89;59.33;99684.50;2622129;54;20030;-67
2021/11/05 14:34:56;;;;;;;8.07;7.15;;;;;;;10.95;59.58;99693.56;2623726;54;20034;-67
2021/11/05 14:37:27;;;;;;;7.15;6.45;;;;;;;10.93;59.36;99694.75;2623409;54;20042;-66
2021/11/05 14:39:59;;;;;;;8.07;7.00;;;;;;;10.90;59.32;99699.38;2623344;54;20046;-68
2021/11/05 14:42:32;;;;;;;8.52;5.68;;;;;;;10.76;59.70;99707.22;2622926;54;20030;-67
2021/11/05 14:45:07;;;;;;;8.37;6.17;;;;;;;10.74;59.87;99710.03;2619709;54;20089;-69
2021/11/05 14:47:43;;;;;;;7.45;5.32;;;;;;;10.64;60.00;99709.41;2619667;54;20042;-67
2021/11/05 14:50:15;;;;;;;7.88;5.40;;;;;;;10.64;60.28;99710.22;2621747;54;20073;-67
2021/11/05 14:52:51;;;;;;;7.65;5.60;;;;;;;10.71;60.92;99715.66;2622217;47;20030;-67
2021/11/05 14:55:22;;;;;;;7.10;6.35;;;;;;;10.77;60.86;99714.97;2623543;54;20561;-68
2021/11/05 14:57:53;;;;;;;8.65;6.15;;;;;;;10.73;60.47;99718.94;2623966;39;20516;-68
2021/11/05 15:00:30;;;;;;;6.43;5.63;;;;;;;10.73;60.71;99721.59;2622630;54;20030;-67
2021/11/05 15:02:59;;;;;;;10.43;5.93;;;;;;;10.67;60.53;99719.66;2619344;54;20030;-67
2021/11/05 15:05:32;;;;;;;8.32;6.95;;;;;;;10.68;60.27;99731.88;2619821;54;20033;-67
2021/11/05 15:08:07;;;;;;;9.73;6.60;;;;;;;10.69;60.77;99727.41;2624076;54;20022;-67
2021/11/05 15:10:39;;;;;;;8.05;6.38;;;;;;;10.75;60.78;99734.66;2624329;54;20018;-67
2021/11/05 15:13:13;;;;;;;8.10;6.20;;;;;;;10.79;60.23;99738.63;2624456;54;20035;-68
2021/11/05 15:15:47;;;;;;;9.45;5.82;;;;;;;10.79;60.59;99734.16;2624580;54;20061;-67
2021/11/05 15:18:19;;;;;;;9.38;7.43;;;;;;;10.79;60.60;99741.25;2624914;54;20065;-67
2021/11/05 15:20:50;;;;;;;11.63;8.13;;;;;;;10.76;60.34;99741.59;2626231;39;20409;-66
2021/11/05 15:23:23;;;;;;;10.77;8.05;;;;;;;10.74;60.82;99739.13;2625215;54;20019;-66
2021/11/05 15:25:54;;;;;;;10.27;7.70;;;;;;;10.79;60.62;99741.25;2625169;54;20038;-67
2021/11/05 15:28:24;;;;;;;9.15;8.10;;;;;;;10.80;61.13;99735.78;2625494;54;20042;-67
2021/11/05 15:30:58;;;;;;;8.95;7.47;;;;;;;10.83;60.61;99742.56;2625142;54;20033;-68
2021/11/05 15:33:30;;;;;;;8.73;7.63;;;;;;;10.83;60.57;99737.28;2625421;54;20030;-68
2021/11/05 15:35:59;;;;;;;8.63;7.43;;;;;;;10.83;60.81;99745.22;2625443;54;20031;-68
2021/11/05 15:38:31;;;;;;;10.93;7.90;;;;;;;10.78;61.38;99750.19;2625784;39;20441;-67
2021/11/05 15:41:02;;;;;;;9.00;7.82;;;;;;;10.80;61.44;99748.19;2625420;54;20042;-67
2021/11/05 15:43:32;;;;;;;10.90;6.93;;;;;;;10.79;61.24;99757.94;2625093;54;20027;-67
2021/11/05 15:46:08;;;;;;;23.27;12.13;;;;;;;10.77;61.12;99752.00;2625529;39;20430;-67
2021/11/05 15:48:39;;;;;;;13.13;9.52;;;;;;;10.74;61.07;99757.66;2624597;54;20037;-67
2021/11/05 15:51:12;;;;;;;11.50;8.05;;;;;;;10.71;61.77;99754.50;2624238;46;20082;-70
2021/11/05 15:53:43;;;;;;;7.97;7.15;;;;;;;10.64;61.88;99757.00;2623392;54;20030;-68
2021/11/05 15:56:15;;;;;;;7.50;6.70;;;;;;;10.59;61.88;99752.22;2625604;54;20027;-69
2021/11/05 15:58:47;;;;;;;7.82;6.72;;;;;;;10.57;62.36;99754.22;2625096;54;20038;-67
2021/11/05 16:01:19;;;;;;;8.52;6.53;;;;;;;10.54;62.55;99769.59;2624404;47;20037;-67
2021/11/05 16:03:49;;;;;;;7.95;7.03;;;;;;;10.52;62.70;99763.63;2624579;54;20048;-68
2021/11/05 16:06:19;;;;;;;9.73;7.13;;;;;;;10.50;63.28;99763.81;2624460;54;20030;-66
2021/11/05 16:08:48;;;;;;;8.02;7.22;;;;;;;10.47;63.08;99768.63;2624694;46;20023;-66
2021/11/05 16:11:19;;;;;;;9.57;8.02;;;;;;;10.43;63.70;99775.22;2624048;54;20090;-67
2021/11/05 16:13:48;;;;;;;18.42;13.70;;;;;;;10.37;63.57;99782.84;2625123;54;20027;-68
2021/11/05 16:16:21;;;;;;;12.57;9.93;;;;;;;10.33;64.23;99786.81;2625667;39;20415;-68
2021/11/05 16:18:50;;;;;;;9.85;8.82;;;;;;;10.32;63.97;99784.31;2624674;54;20031;-68
2021/11/05 16:21:20;;;;;;;12.57;10.60;;;;;;;10.31;63.91;99786.13;2624587;54;20030;-67
2021/11/05 16:23:49;;;;;;;8.85;7.60;;;;;;;10.36;64.41;99793.56;2623370;54;20061;-67
2021/11/05 16:26:19;;;;;;;8.40;7.60;;;;;;;10.36;64.05;99786.47;2624210;54;20102;-68
2021/11/05 16:28:49;;;;;;;8.23;6.85;;;;;;;10.34;63.94;99785.81;2624299;54;20031;-69
2021/11/05 16:31:21;;;;;;;8.85;6.38;;;;;;;10.27;64.18;99790.09;2624449;54;20061;-68
2021/11/05 16:33:51;;;;;;;8.27;6.72;;;;;;;10.24;64.57;99797.50;2623890;54;20019;-67
2021/11/05 16:36:21;;;;;;;11.90;7.90;;;;;;;10.22;64.62;99805.63;2624076;54;20034;-67
2021/11/05 16:38:51;;;;;;;9.25;7.57;;;;;;;10.13;65.22;99802.16;2623526;54;20130;-67
2021/11/05 16:41:21;;;;;;;10.60;7.57;;;;;;;10.07;65.54;99808.06;2623037;54;20576;-66
2021/11/05 16:43:53;;;;;;;8.90;7.40;;;;;;;10.08;65.87;99807.09;2623091;54;20046;-67
2021/11/05 16:46:26;;;;;;;10.13;8.20;;;;;;;10.08;65.97;99811.53;2623556;54;20038;-65
2021/11/05 16:48:57;;;;;;;9.30;6.95;;;;;;;10.01;66.04;99813.22;2622745;54;20023;-66
2021/11/05 16:51:30;;;;;;;7.35;6.63;;;;;;;9.98;66.44;99808.25;2621805;54;20027;-66
2021/11/05 16:54:00;;;;;;;11.45;7.30;;;;;;;9.96;66.52;99821.63;2622332;54;20034;-65
2021/11/05 16:56:30;;;;;;;13.60;7.72;;;;;;;9.94;66.73;99826.22;2622695;54;20034;-65
2021/11/05 16:59:00;;;;;;;9.07;7.47;;;;;;;9.93;66.51;99824.59;2621573;54;20037;-66
2021/11/05 17:01:32;;;;;;;11.30;8.38;;;;;;;9.96;66.79;99820.78;2620250;51;20034;-67
2021/11/05 17:04:06;;;;;;;13.35;8.15;;;;;;;9.97;66.97;99822.44;2621290;54;20038;-67
2021/11/05 17:06:35;;;;;;;;;;;;;;;9.90;66.45;99823.09;2620843;54;20045;-67
2021/11/05 17:09:06;;;;;;;6.50;5.80;;;;;;;9.82;66.54;99824.91;2621742;54;19957;-67
2021/11/05 17:11:36;;;;;;;8.90;6.35;;;;;;;9.72;66.92;99827.69;2621971;39;20437;-67
2021/11/05 17:14:05;;;;;;;8.20;7.35;;;;;;;9.64;67.15;99833.78;2622570;54;20070;-67
2021/11/05 17:16:37;;;;;;;14.30;8.40;;;;;;;9.63;67.62;99837.41;2622328;54;20812;-67
2021/11/05 17:19:07;;;;;;;12.98;9.15;;;;;;;9.57;67.53;99837.22;2621384;54;20042;-66
2021/11/05 17:21:37;;;;;;;11.00;8.80;;;;;;;9.53;68.08;99842.00;2621979;54;20022;-67
2021/11/05 17:24:07;;;;;;;13.05;9.48;;;;;;;9.52;67.90;99847.44;2622587;53;20022;-67
2021/11/05 17:26:38;;;;;;;9.95;8.95;;;;;;;9.36;68.33;99856.13;2621538;54;20027;-67
2021/11/05 17:29:07;;;;;;;10.57;8.23;;;;;;;9.18;68.47;99864.09;2622897;54;20037;-67
2021/11/05 17:31:40;;;;;;;12.10;9.00;;;;;;;9.12;69.08;99860.31;2622991;47;20030;-66
2021/11/05 17:34:10;;;;;;;10.52;8.32;;;;;;;9.08;68.93;99871.31;2624078;54;20037;-67
2021/11/05 17:36:41;;;;;;;11.43;8.90;;;;;;;9.07;69.80;99869.69;2623408;54;20027;-66
2021/11/05 17:39:11;;;;;;;15.60;9.88;;;;;;;9.08;69.25;99879.25;2623454;39;20413;-67
2021/11/05 17:41:41;;;;;;;14.80;11.15;;;;;;;9.07;69.71;99882.88;2623452;54;20033;-66
2021/11/05 17:44:11;;;;;;;13.02;11.18;;;;;;;9.10;69.84;99886.03;2624488;54;20045;-66
2021/11/05 17:46:43;;;;;;;18.40;12.00;;;;;;;9.11;69.33;99886.84;2623518;54;20038;-66
2021/11/05 17:49:13;;;;;;;15.63;11.50;;;;;;;9.02;69.32;99891.25;2622886;54;20031;-66
2021/11/05 17:51:43;;;;;;;12.32;9.52;;;;;;;8.76;70.07;99893.88;2622883;54;20581;-66
2021/11/05 17:54:12;;;;;;;14.13;10.05;;;;;;;8.52;70.43;99894.50;2621740;54;20034;-66
2021/11/05 17:56:44;;;;;;;12.02;9.63;;;;;;;8.49;70.99;99904.53;2621075;54;20030;-65
2021/11/05 17:59:16;;;;;;;11.75;9.35;;;;;;;8.56;71.56;99906.41;2621281;54;20053;-65
2021/11/05 18:01:50;;;;;;;11.40;8.95;;;;;;;8.63;71.40;99909.25;2621205;54;20030;-65
2021/11/05 18:04:29;;;;;;;12.23;9.60;;;;;;;8.69;71.28;99906.00;2623178;39;20391;-65
2021/11/05 18:06:59;;;;;;;17.67;10.43;;;;;;;8.79;71.17;99911.19;2623455;54;20030;-65
2021/11/05 18:09:29;;;;;;;16.92;12.10;;;;;;;8.81;70.94;99917.13;2623063;54;20039;-66
2021/11/05 18:12:01;;;;;;;16.13;13.00;;;;;;;8.85;71.12;99921.13;2622401;54;20033;-66
2021/11/05 18:14:30;;;;;;;17.27;11.55;;;;;;;8.88;71.12;99920.81;2622255;54;20057;-66
2021/11/05 18:17:02;;;;;;;13.85;10.48;;;;;;;8.89;71.26;99918.00;2621035;54;20026;-66
2021/11/05 18:19:32;;;;;;;16.33;11.40;;;;;;;8.88;71.58;99920.81;2621479;54;20031;-66
2021/11/05 18:22:02;;;;;;;15.18;10.57;;;;;;;8.87;71.52;99922.63;2621324;54;20040;-67
2021/11/05 18:24:31;;;;;;;11.80;10.32;;;;;;;8.74;71.27;99926.66;2622470;54;20050;-66
2021/11/05 18:27:01;;;;;;;14.77;11.02;;;;;;;8.55;71.88;99928.47;2622639;54;20608;-67
2021/11/05 18:29:31;;;;;;;15.88;11.65;;;;;;;8.43;72.06;99932.31;2622724;54;20030;-65
2021/11/05 18:32:03;;;;;;;15.07;11.15;;;;;;;8.41;72.99;99924.59;2623479;39;20399;-66
2021/11/05 18:34:33;;;;;;;15.30;11.25;;;;;;;8.47;73.15;99933.69;2623495;54;20046;-66
2021/11/05 18:37:03;;;;;;;14.57;11.18;;;;;;;8.46;72.83;99937.28;2623218;54;20034;-66
2021/11/05 18:39:33;;;;;;;15.25;11.00;;;;;;;8.48;73.05;99934.50;2623643;54;20030;-66
2021/11/05 18:42:04;;;;;;;13.05;9.63;;;;;;;8.53;72.91;99942.78;2623413;54;20042;-66
2021/11/05 18:44:33;;;;;;;13.32;10.45;;;;;;;8.57;73.42;99936.22;2623429;54;20038;-66
2021/11/05 18:47:06;;;;;;;11.52;9.00;;;;;;;8.61;72.85;99933.16;2623831;54;20030;-66
2021/11/05 18:49:36;;;;;;;9.32;7.95;;;;;;;8.61;73.05;99940.22;2623495;54;20068;-65
2021/11/05 18:52:06;;;;;;;14.43;8.00;;;;;;;8.62;72.93;99937.44;2622481;54;20545;-65
2021/11/05 18:54:37;;;;;;;9.50;8.32;;;;;;;8.63;73.23;99949.63;2622566;54;20566;-67
2021/11/05 18:57:07;;;;;;;11.15;7.82;;;;;;;8.64;73.35;99947.81;2620208;54;20026;-66
2021/11/05 18:59:37;;;;;;;12.20;9.82;;;;;;;8.73;73.17;99951.34;2620001;54;20026;-67
2021/11/05 19:02:10;;;;;;;16.60;11.70;;;;;;;8.66;72.54;99957.25;2619980;46;20073;-67
2021/11/05 19:04:39;;;;;;;19.98;11.80;;;;;;;8.60;72.80;99955.19;2619293;54;20541;-67
2021/11/05 19:07:09;;;;;;;15.70;11.13;;;;;;;8.55;73.26;99959.28;2620127;54;20034;-67
2021/11/05 19:09:38;;;;;;;64.75;40.25;;;;;;;8.55;73.70;99964.56;2620112;54;20034;-67
2021/11/05 19:12:08;;;;;;;16.30;12.05;;;;;;;8.54;73.39;99962.91;2619949;54;20030;-66
2021/11/05 19:14:38;;;;;;;14.00;9.95;;;;;;;8.48;74.08;99961.69;2620083;54;20030;-66
2021/11/05 19:17:11;;;;;;;12.98;9.60;;;;;;;8.49;73.56;99973.91;2622655;54;20078;-67
2021/11/05 19:19:40;;;;;;;12.90;10.38;;;;;;;8.44;73.38;99968.22;2622988;54;20038;-66
2021/11/05 19:22:10;;;;;;;14.20;10.25;;;;;;;8.36;74.03;99971.56;2623081;54;20031;-66
2021/11/05 19:24:40;;;;;;;17.27;10.50;;;;;;;8.34;74.09;99965.66;2623905;39;20414;-65
2021/11/05 19:27:09;;;;;;;16.67;10.30;;;;;;;8.34;74.50;99967.44;2621516;47;20031;-66
2021/11/05 19:29:39;;;;;;;15.57;10.98;;;;;;;8.38;74.53;99966.22;2618586;54;20042;-66
2021/11/05 19:32:11;;;;;;;15.13;11.60;;;;;;;8.42;74.78;99965.75;2619370;54;20073;-66
2021/11/05 19:34:41;;;;;;;16.58;11.95;;;;;;;8.50;74.52;99966.81;2623878;54;20034;-66
2021/11/05 19:37:11;;;;;;;16.42;11.45;;;;;;;8.49;74.19;99979.16;2623578;54;20035;-66
2021/11/05 19:39:41;;;;;;;19.77;11.38;;;;;;;8.46;74.37;99971.56;2623695;54;20031;-65
2021/11/05 19:42:11;;;;;;;14.57;11.55;;;;;;;8.41;74.36;99979.09;2622698;54;20034;-66